createdAt,value
2018-12-17T00:00:20.747Z,92.00
2018-12-17T00:02:49.048Z,92.21
2018-12-17T00:05:17.240Z,91.70
2018-12-17T00:07:45.586Z,91.69
2018-12-17T00:10:13.873Z,91.88
2018-12-17T00:12:42.076Z,91.37
2018-12-17T00:15:10.315Z,91.44
2018-12-17T00:17:38.518Z,91.46
2018-12-17T00:20:07.804Z,91.56
2018-12-17T00:22:35.975Z,91.45
2018-12-17T00:25:04.376Z,91.44
2018-12-17T00:27:32.563Z,91.54
2018-12-17T00:30:00.873Z,91.78
2018-12-17T00:32:29.229Z,91.54
2018-12-17T00:34:57.391Z,91.47
2018-12-17T00:37:29.473Z,91.16
2018-12-17T00:39:58.254Z,91.10
2018-12-17T00:42:26.527Z,91.06
2018-12-17T00:44:54.705Z,91.38
2018-12-17T00:47:22.985Z,90.95
2018-12-17T00:49:51.176Z,91.22
2018-12-17T00:52:19.363Z,91.21
2018-12-17T00:54:47.624Z,91.54
2018-12-17T00:57:15.984Z,91.33
2018-12-17T00:59:44.257Z,91.39
2018-12-17T01:02:33.145Z,91.28
2018-12-17T01:05:01.365Z,91.28
2018-12-17T01:07:30.716Z,91.35
2018-12-17T01:09:59.197Z,90.63
2018-12-17T01:12:27.473Z,91.49
2018-12-17T01:14:55.813Z,91.57
2018-12-17T01:17:25.089Z,91.15
2018-12-17T01:19:53.416Z,91.36
2018-12-17T01:22:21.668Z,91.33
2018-12-17T01:24:49.969Z,91.05
2018-12-17T01:27:25.960Z,91.73
2018-12-17T01:29:54.175Z,91.68
2018-12-17T01:32:22.460Z,91.29
2018-12-17T01:34:50.631Z,91.72
2018-12-17T01:37:18.885Z,91.75
2018-12-17T01:39:47.264Z,91.43
2018-12-17T01:42:15.516Z,91.54
2018-12-17T01:44:43.757Z,91.21
2018-12-17T01:47:11.958Z,91.16
2018-12-17T01:49:40.266Z,91.06
2018-12-17T01:52:08.437Z,91.43
2018-12-17T01:54:36.624Z,91.43
2018-12-17T01:57:05.093Z,91.53
2018-12-17T01:59:33.354Z,91.60
2018-12-17T02:02:01.576Z,91.01
2018-12-17T02:04:29.838Z,91.50
2018-12-17T02:06:58.181Z,91.71
2018-12-17T02:09:26.462Z,91.95
2018-12-17T02:11:54.687Z,92.11
2018-12-17T02:14:22.924Z,92.13
2018-12-17T02:16:51.226Z,91.75
2018-12-17T02:19:19.446Z,91.64
2018-12-17T02:21:47.819Z,91.77
2018-12-17T02:24:16.014Z,91.32
2018-12-17T02:26:44.306Z,91.64
2018-12-17T02:29:12.555Z,91.87
2018-12-17T02:31:40.747Z,91.64
2018-12-17T02:34:08.935Z,91.85
2018-12-17T02:36:37.160Z,91.81
2018-12-17T02:39:07.964Z,91.90
2018-12-17T02:41:36.252Z,92.29
2018-12-17T02:44:05.136Z,92.26
2018-12-17T02:46:33.391Z,91.87
2018-12-17T02:49:01.597Z,92.16
2018-12-17T02:51:30.040Z,91.94
2018-12-17T02:53:58.231Z,91.97
2018-12-17T02:56:26.517Z,91.75
2018-12-17T02:58:54.727Z,91.92
2018-12-17T03:01:23.000Z,92.01
2018-12-17T03:03:51.267Z,92.17
2018-12-17T03:06:19.453Z,92.10
2018-12-17T03:08:47.793Z,91.79
2018-12-17T03:11:15.956Z,92.43
2018-12-17T03:13:50.527Z,92.05
2018-12-17T03:16:19.745Z,91.89
2018-12-17T03:18:47.947Z,91.86
2018-12-17T03:21:16.234Z,91.60
2018-12-17T03:23:44.412Z,91.62
2018-12-17T03:26:12.636Z,91.74
2018-12-17T03:28:40.819Z,91.95
2018-12-17T03:31:09.068Z,91.82
2018-12-17T03:33:37.303Z,92.11
2018-12-17T03:36:05.532Z,91.89
2018-12-17T03:38:33.747Z,92.12
2018-12-17T03:41:02.017Z,92.05
2018-12-17T03:43:30.261Z,92.37
2018-12-17T03:46:00.126Z,92.17
2018-12-17T03:48:28.800Z,91.67
2018-12-17T03:50:57.003Z,92.11
2018-12-17T03:53:25.217Z,91.84
2018-12-17T03:55:53.497Z,91.74
2018-12-17T03:58:21.775Z,92.10
2018-12-17T04:00:49.946Z,91.99
2018-12-17T04:03:18.194Z,92.21
2018-12-17T04:05:49.893Z,92.26
2018-12-17T04:08:18.109Z,92.10
2018-12-17T04:10:46.360Z,92.45
2018-12-17T04:13:14.568Z,92.47
2018-12-17T04:15:42.845Z,92.77
2018-12-17T04:18:11.105Z,92.89
2018-12-17T04:20:39.330Z,92.80
2018-12-17T04:23:07.472Z,92.72
2018-12-17T04:25:35.706Z,92.65
2018-12-17T04:28:04.002Z,92.18
2018-12-17T04:30:32.180Z,92.71
2018-12-17T04:33:00.369Z,92.72
2018-12-17T04:35:28.634Z,92.95
2018-12-17T04:37:56.893Z,92.73
2018-12-17T04:40:25.073Z,93.60
2018-12-17T04:42:53.267Z,93.70
2018-12-17T04:45:21.552Z,93.34
2018-12-17T04:47:49.814Z,93.28
2018-12-17T04:50:17.988Z,93.19
2018-12-17T04:52:46.340Z,93.69
2018-12-17T04:55:14.538Z,93.72
2018-12-17T04:57:43.054Z,93.81
2018-12-17T05:00:11.409Z,93.39
2018-12-17T05:02:39.574Z,93.78
2018-12-17T05:05:08.446Z,93.50
2018-12-17T05:07:36.639Z,93.92
2018-12-17T05:10:05.954Z,93.76
2018-12-17T05:12:34.210Z,93.41
2018-12-17T05:15:03.765Z,93.26
2018-12-17T05:17:32.227Z,93.66
2018-12-17T05:20:00.484Z,94.27
2018-12-17T05:22:28.781Z,94.11
2018-12-17T05:24:57.204Z,94.40
2018-12-17T05:27:25.409Z,94.59
2018-12-17T05:29:53.612Z,94.24
2018-12-17T05:32:22.157Z,94.60
2018-12-17T05:34:50.434Z,94.78
2018-12-17T05:37:18.773Z,94.74
2018-12-17T05:39:47.037Z,94.35
2018-12-17T05:42:15.289Z,94.69
2018-12-17T05:44:43.459Z,94.70
2018-12-17T05:47:11.626Z,94.71
2018-12-17T05:49:39.957Z,94.68
2018-12-17T05:52:08.386Z,94.69
2018-12-17T05:54:36.579Z,94.54
2018-12-17T05:57:04.921Z,94.91
2018-12-17T05:59:33.302Z,96.20
2018-12-17T06:02:01.496Z,95.39
2018-12-17T06:04:29.768Z,95.08
2018-12-17T06:06:57.935Z,95.38
2018-12-17T06:09:26.215Z,95.52
2018-12-17T06:11:54.621Z,95.85
2018-12-17T06:14:22.901Z,95.49
2018-12-17T06:16:51.125Z,95.92
2018-12-17T06:19:19.311Z,95.78
2018-12-17T06:21:47.497Z,95.82
2018-12-17T06:24:15.855Z,96.06
2018-12-17T06:26:52.342Z,95.91
2018-12-17T06:29:35.387Z,95.70
2018-12-17T06:31:58.954Z,95.95
2018-12-17T06:34:27.103Z,95.95
2018-12-17T06:37:00.565Z,95.48
2018-12-17T06:39:28.777Z,95.39
2018-12-17T06:41:56.952Z,95.67
2018-12-17T06:44:25.276Z,95.38
2018-12-17T06:46:53.612Z,95.65
2018-12-17T06:49:21.830Z,95.86
2018-12-17T06:51:51.115Z,95.80
2018-12-17T06:54:20.892Z,96.05
2018-12-17T06:56:49.064Z,96.01
2018-12-17T06:59:17.421Z,96.19
2018-12-17T07:01:46.184Z,96.33
2018-12-17T07:04:14.467Z,96.10
2018-12-17T07:06:42.615Z,95.77
2018-12-17T07:09:13.758Z,95.76
2018-12-17T07:11:42.024Z,96.04
2018-12-17T07:14:10.196Z,95.90
2018-12-17T07:16:38.464Z,95.87
2018-12-17T07:19:06.660Z,95.80
2018-12-17T07:21:34.849Z,96.07
2018-12-17T07:24:03.039Z,95.88
2018-12-17T07:26:31.282Z,95.88
2018-12-17T07:28:59.464Z,95.94
2018-12-17T07:31:27.594Z,95.61
2018-12-17T07:33:55.854Z,95.69
2018-12-17T07:36:24.149Z,95.90
2018-12-17T07:38:52.376Z,95.64
2018-12-17T07:41:20.586Z,95.37
2018-12-17T07:43:48.932Z,95.33
2018-12-17T07:46:17.255Z,95.33
2018-12-17T07:48:46.150Z,95.46
2018-12-17T07:51:14.329Z,95.28
2018-12-17T07:53:42.963Z,95.09
2018-12-17T07:56:11.299Z,95.40
2018-12-17T07:58:39.649Z,95.15
2018-12-17T08:01:07.892Z,94.87
2018-12-17T08:03:36.140Z,95.23
2018-12-17T08:06:04.584Z,95.19
2018-12-17T08:08:35.608Z,94.93
2018-12-17T08:11:03.151Z,95.11
2018-12-17T08:13:31.595Z,94.97
2018-12-17T08:15:59.889Z,94.89
2018-12-17T08:18:28.199Z,94.80
2018-12-17T08:20:57.539Z,95.58
2018-12-17T08:23:25.837Z,95.05
2018-12-17T08:25:54.123Z,95.39
2018-12-17T08:28:22.321Z,95.47
2018-12-17T08:30:50.472Z,95.53
2018-12-17T08:33:18.684Z,95.30
2018-12-17T08:35:47.085Z,95.49
2018-12-17T08:38:15.495Z,95.46
2018-12-17T08:40:43.670Z,95.48
2018-12-17T08:43:12.748Z,95.34
2018-12-17T08:45:41.040Z,95.99
2018-12-17T08:48:09.336Z,95.52
2018-12-17T08:50:37.724Z,95.30
2018-12-17T08:53:05.992Z,95.37
2018-12-17T08:55:34.340Z,95.37
2018-12-17T08:58:02.657Z,95.66
2018-12-17T09:00:30.827Z,95.64
2018-12-17T09:02:59.001Z,95.35
2018-12-17T09:05:27.172Z,95.38
2018-12-17T09:07:57.399Z,95.79
2018-12-17T09:13:25.851Z,96.01
2018-12-17T09:15:54.339Z,96.22
2018-12-17T09:18:25.390Z,96.07
2018-12-17T09:20:53.687Z,95.69
2018-12-17T09:23:21.869Z,95.74
2018-12-17T09:25:50.116Z,95.93
2018-12-17T09:28:18.466Z,96.10
2018-12-17T09:30:46.849Z,96.25
2018-12-17T09:33:15.110Z,96.25
2018-12-17T09:35:43.416Z,95.99
2018-12-17T09:38:11.627Z,95.97
2018-12-17T09:40:39.916Z,95.89
2018-12-17T09:43:08.436Z,96.08
2018-12-17T09:45:36.700Z,96.29
2018-12-17T09:48:05.034Z,96.23
2018-12-17T09:50:33.313Z,96.57
2018-12-17T09:53:01.468Z,96.92
2018-12-17T09:55:29.744Z,96.88
2018-12-17T09:57:58.693Z,96.58
2018-12-17T10:00:28.949Z,96.92
2018-12-17T10:02:57.338Z,97.23
2018-12-17T10:05:25.782Z,97.19
2018-12-17T10:07:53.979Z,97.34
2018-12-17T10:10:22.154Z,97.42
2018-12-17T10:12:50.352Z,97.37
2018-12-17T10:15:18.517Z,97.71
2018-12-17T10:17:46.887Z,97.86
2018-12-17T10:20:15.048Z,97.58
2018-12-17T10:22:43.222Z,97.97
2018-12-17T10:25:11.609Z,97.79
2018-12-17T10:27:39.851Z,97.78
2018-12-17T10:30:08.143Z,97.60
2018-12-17T10:32:36.562Z,97.92
2018-12-17T10:35:05.235Z,97.53
2018-12-17T10:37:33.453Z,98.01
2018-12-17T10:40:01.738Z,98.09
2018-12-17T10:42:29.949Z,97.79
2018-12-17T10:44:58.149Z,97.80
2018-12-17T10:47:26.459Z,97.77
2018-12-17T10:49:54.677Z,98.06
2018-12-17T10:52:22.949Z,97.71
2018-12-17T10:54:51.129Z,97.66
2018-12-17T10:57:19.340Z,97.89
2018-12-17T10:59:47.588Z,97.54
2018-12-17T11:02:20.852Z,97.43
2018-12-17T11:04:54.049Z,97.63
2018-12-17T11:07:22.259Z,97.34
2018-12-17T11:09:50.637Z,97.18
2018-12-17T11:12:20.071Z,97.17
2018-12-17T11:14:48.376Z,97.24
2018-12-17T11:17:16.560Z,97.27
2018-12-17T11:19:44.769Z,97.06
2018-12-17T11:22:13.069Z,96.95
2018-12-17T11:24:41.268Z,96.77
2018-12-17T11:27:09.477Z,97.03
2018-12-17T11:29:37.821Z,96.81
2018-12-17T11:32:11.574Z,96.99
2018-12-17T11:34:36.263Z,96.71
2018-12-17T11:37:04.603Z,96.65
2018-12-17T11:39:32.797Z,96.40
2018-12-17T11:42:01.056Z,96.34
2018-12-17T11:44:29.323Z,96.41
2018-12-17T11:46:57.530Z,96.17
2018-12-17T11:49:25.809Z,95.79
2018-12-17T11:51:54.152Z,96.15
2018-12-17T11:54:22.449Z,96.37
2018-12-17T11:58:12.008Z,96.22
2018-12-17T12:00:43.721Z,96.43
2018-12-17T12:03:12.019Z,96.35
2018-12-17T12:05:40.175Z,96.26
2018-12-17T12:08:08.406Z,96.35
2018-12-17T12:10:36.597Z,96.12
2018-12-17T12:13:04.956Z,96.10
2018-12-17T12:15:33.321Z,95.68
2018-12-17T12:18:01.496Z,95.94
2018-12-17T12:20:29.799Z,95.70
2018-12-17T12:22:58.150Z,95.98
2018-12-17T12:25:26.509Z,96.00
2018-12-17T12:27:54.764Z,96.11
2018-12-17T12:30:22.987Z,95.97
2018-12-17T12:32:51.155Z,95.75
2018-12-17T12:35:19.343Z,95.70
2018-12-17T12:37:47.584Z,95.58
2018-12-17T12:40:15.886Z,95.50
2018-12-17T12:42:51.223Z,95.56
2018-12-17T12:45:14.391Z,95.32
2018-12-17T12:47:42.564Z,95.34
2018-12-17T12:50:10.869Z,95.53
2018-12-17T12:52:39.228Z,95.56
2018-12-17T12:55:07.700Z,95.64
2018-12-17T12:57:35.950Z,95.88
2018-12-17T13:00:06.530Z,95.66
2018-12-17T13:02:40.634Z,95.34
2018-12-17T13:05:08.970Z,94.94
2018-12-17T13:07:37.160Z,95.30
2018-12-17T13:10:09.096Z,95.29
2018-12-17T13:12:37.327Z,95.47
2018-12-17T13:15:06.828Z,95.21
2018-12-17T13:17:35.043Z,95.27
2018-12-17T13:20:05.612Z,95.40
2018-12-17T13:22:34.490Z,95.47
2018-12-17T13:25:02.719Z,95.20
2018-12-17T13:27:30.947Z,95.37
2018-12-17T13:29:59.232Z,95.28
2018-12-17T13:32:27.501Z,94.83
2018-12-17T13:34:55.659Z,95.21
2018-12-17T13:37:23.921Z,94.97
2018-12-17T13:39:52.107Z,94.97
2018-12-17T13:42:20.301Z,95.17
2018-12-17T13:44:52.290Z,94.94
2018-12-17T13:47:20.475Z,95.07
2018-12-17T13:49:48.824Z,95.34
2018-12-17T13:52:22.391Z,94.95
2018-12-17T13:54:50.733Z,95.19
2018-12-17T13:57:18.981Z,95.02
2018-12-17T13:59:47.289Z,95.05
2018-12-17T14:02:15.625Z,95.22
2018-12-17T14:04:43.809Z,95.11
2018-12-17T14:07:12.024Z,95.05
2018-12-17T14:09:45.643Z,95.08
2018-12-17T14:12:13.812Z,94.73
2018-12-17T14:14:41.942Z,95.02
2018-12-17T14:17:15.424Z,95.33
2018-12-17T14:19:47.872Z,95.11
2018-12-17T14:22:16.058Z,94.93
2018-12-17T14:24:44.246Z,95.36
2018-12-17T14:27:12.565Z,95.04
2018-12-17T14:29:40.740Z,95.05
2018-12-17T14:32:08.981Z,94.96
2018-12-17T14:34:40.423Z,95.17
2018-12-17T14:37:08.678Z,95.30
2018-12-17T14:39:36.904Z,95.48
2018-12-17T14:42:05.236Z,95.18
2018-12-17T14:44:34.826Z,95.15
2018-12-17T14:47:03.659Z,95.44
2018-12-17T14:49:31.955Z,95.22
2018-12-17T14:52:00.112Z,95.36
2018-12-17T14:54:28.464Z,95.17
2018-12-17T14:56:56.664Z,95.40
2018-12-17T15:02:32.909Z,95.20
2018-12-17T15:05:02.107Z,95.40
2018-12-17T15:07:30.482Z,95.54
2018-12-17T15:09:59.155Z,95.29
2018-12-17T15:12:28.611Z,94.91
2018-12-17T15:14:57.206Z,95.22
2018-12-17T15:24:21.240Z,95.15
2018-12-17T15:26:49.573Z,95.09
2018-12-17T15:29:17.733Z,95.17
2018-12-17T15:31:45.968Z,95.06
2018-12-17T15:34:14.130Z,94.86
2018-12-17T15:36:42.479Z,94.92
2018-12-17T15:39:10.980Z,95.71
2018-12-17T15:41:39.234Z,95.17
2018-12-17T15:44:07.422Z,95.28
2018-12-17T15:46:35.703Z,94.78
2018-12-17T15:49:04.051Z,94.80
2018-12-17T15:51:32.974Z,94.80
2018-12-17T15:54:01.261Z,94.72
2018-12-17T15:56:29.464Z,95.00
2018-12-17T15:58:57.706Z,95.05
2018-12-17T16:01:28.085Z,94.91
2018-12-17T16:03:56.283Z,95.16
2018-12-17T16:06:24.505Z,95.03
2018-12-17T16:08:52.788Z,94.83
2018-12-17T16:11:20.948Z,94.89
2018-12-17T16:13:49.219Z,95.05
2018-12-17T16:16:17.685Z,94.80
2018-12-17T16:18:46.208Z,94.75
2018-12-17T16:21:14.441Z,94.73
2018-12-17T16:23:42.733Z,94.91
2018-12-17T16:26:11.017Z,94.98
2018-12-17T16:28:39.281Z,94.62
2018-12-17T16:31:07.486Z,94.46
2018-12-17T16:33:35.704Z,94.28
2018-12-17T16:36:04.066Z,94.21
2018-12-17T16:38:32.336Z,94.36
2018-12-17T16:41:01.080Z,94.87
2018-12-17T16:43:29.327Z,94.33
2018-12-17T16:45:57.894Z,94.20
2018-12-17T16:48:26.149Z,94.60
2018-12-17T16:50:54.463Z,94.77
2018-12-17T16:53:22.728Z,95.20
2018-12-17T16:55:51.049Z,95.29
2018-12-17T16:58:19.228Z,95.49
2018-12-17T17:00:49.146Z,95.47
2018-12-17T17:03:17.311Z,95.37
2018-12-17T17:05:45.590Z,95.63
2018-12-17T17:08:13.893Z,95.93
2018-12-17T17:10:42.173Z,95.65
2018-12-17T17:13:10.455Z,95.90
2018-12-17T17:15:45.126Z,96.00
2018-12-17T17:18:13.349Z,95.78
2018-12-17T17:20:42.320Z,95.96
2018-12-17T17:23:10.680Z,95.72
2018-12-17T17:25:38.970Z,95.93
2018-12-17T17:28:07.246Z,96.14
2018-12-17T17:30:35.537Z,96.17
2018-12-17T17:33:04.232Z,95.79
2018-12-17T17:35:33.933Z,96.18
2018-12-17T17:38:02.226Z,96.03
2018-12-17T17:40:30.449Z,96.27
2018-12-17T17:42:58.830Z,96.20
2018-12-17T17:45:27.105Z,96.35
2018-12-17T17:47:55.966Z,96.32
2018-12-17T17:50:24.314Z,96.25
2018-12-17T17:52:52.497Z,96.40
2018-12-17T17:55:20.694Z,96.70
2018-12-17T17:57:48.878Z,96.48
2018-12-17T18:00:17.152Z,96.43
2018-12-17T18:02:45.353Z,96.14
2018-12-17T18:05:13.650Z,96.51
2018-12-17T18:07:41.965Z,96.64
2018-12-17T18:10:11.068Z,96.46
2018-12-17T18:12:40.072Z,96.34
2018-12-17T18:15:08.644Z,96.47
2018-12-17T18:17:36.938Z,96.20
2018-12-17T18:20:05.704Z,96.12
2018-12-17T18:22:33.868Z,96.40
2018-12-17T18:25:02.094Z,96.27
2018-12-17T18:27:30.586Z,96.51
2018-12-17T18:29:59.112Z,96.36
2018-12-17T18:32:27.389Z,96.74
2018-12-17T18:34:55.606Z,96.75
2018-12-17T18:37:25.117Z,96.59
2018-12-17T18:39:53.693Z,96.86
2018-12-17T18:42:23.406Z,96.69
2018-12-17T19:05:22.283Z,96.85
2018-12-17T19:08:26.825Z,96.78
2018-12-17T19:10:56.029Z,96.65
2018-12-17T19:13:30.996Z,96.82
2018-12-17T19:15:59.255Z,96.53
2018-12-17T19:18:29.064Z,97.03
2018-12-17T19:20:57.340Z,96.83
2018-12-17T19:23:25.620Z,96.84
2018-12-17T19:25:53.877Z,97.01
2018-12-17T19:28:35.699Z,96.92
2018-12-17T19:31:18.668Z,97.06
2018-12-17T19:34:35.630Z,97.31
2018-12-17T19:37:04.363Z,96.89
2018-12-17T19:42:44.284Z,96.76
2018-12-17T19:47:58.877Z,97.09
2018-12-17T19:50:27.673Z,97.11
2018-12-17T19:56:03.624Z,97.25
2018-12-17T19:59:45.252Z,97.32
2018-12-17T20:02:13.604Z,97.28
2018-12-17T20:04:41.916Z,97.12
2018-12-17T20:07:14.037Z,97.40
2018-12-17T20:09:47.744Z,97.18
2018-12-17T20:12:16.081Z,97.33
2018-12-17T20:14:44.354Z,97.18
2018-12-17T20:17:12.752Z,97.55
2018-12-17T20:19:41.008Z,97.13
2018-12-17T20:22:09.424Z,97.28
2018-12-17T20:24:37.811Z,97.24
2018-12-17T20:27:06.199Z,97.00
2018-12-17T20:29:34.452Z,97.37
2018-12-17T20:32:03.082Z,97.23
2018-12-17T20:40:40.836Z,97.50
2018-12-17T20:47:02.090Z,97.68
2018-12-17T20:49:30.325Z,97.19
2018-12-17T20:51:59.758Z,97.38
2018-12-17T20:54:48.382Z,97.32
2018-12-17T20:57:29.186Z,97.26
2018-12-17T21:03:02.958Z,97.34
2018-12-17T21:05:36.900Z,97.31
2018-12-17T21:11:04.935Z,97.58
2018-12-17T21:13:49.512Z,97.50
2018-12-17T21:16:19.296Z,97.40
2018-12-17T21:18:47.865Z,97.48
2018-12-17T21:24:36.240Z,97.29
2018-12-17T21:27:10.332Z,97.40
2018-12-17T21:29:38.668Z,97.54
2018-12-17T21:32:08.146Z,97.16
2018-12-17T21:34:36.646Z,97.61
2018-12-17T21:37:18.821Z,97.54
2018-12-17T21:39:47.397Z,97.75
2018-12-17T21:48:24.508Z,97.40
2018-12-17T21:54:50.994Z,97.60
2018-12-17T22:03:42.086Z,97.95
2018-12-17T22:13:11.593Z,97.99
2018-12-17T22:17:32.484Z,97.80
2018-12-17T22:20:18.343Z,97.92
2018-12-17T22:22:48.572Z,97.94
2018-12-17T22:34:18.276Z,97.63
2018-12-17T22:36:52.615Z,97.90
2018-12-17T22:39:29.286Z,97.96
2018-12-17T22:42:03.464Z,97.79
2018-12-17T22:44:42.210Z,98.05
2018-12-17T22:47:21.734Z,98.07
2018-12-17T22:49:52.460Z,97.99
2018-12-17T23:06:46.589Z,97.89
2018-12-17T23:28:55.603Z,98.17
2018-12-17T23:31:23.861Z,98.11
2018-12-17T23:33:58.406Z,97.95
2018-12-17T23:36:58.771Z,98.26
2018-12-17T23:39:31.435Z,98.05
2018-12-17T23:42:28.714Z,97.88
2018-12-17T23:45:03.431Z,97.71
2018-12-17T23:47:33.692Z,97.71
